Time;durP1;ratioP1;P1;durP2;ratioP2;P2;SDS_P1;SDS_P2;PMS_P1;PMS_P2;Temp;Humidity;BMP_temperature;BMP_pressure;BME280_temperature;BME280_humidity;BME280_pressure;Samples;Min_cycle;Max_cycle;Signal;HPM_P1;HPM_P2
2023/05/14 05:02:11;;;;;;;11.10;8.02;;;13.00;99.90;;;;;;6723481;23;20091;-77
2023/05/14 05:05:13;;;;;;;11.77;8.10;;;13.00;99.90;;;;;;6229044;28;20049;-79
2023/05/14 05:08:15;;;;;;;11.75;7.78;;;13.00;99.90;;;;;;6229230;28;20053;-77
2023/05/14 05:11:17;;;;;;;10.50;8.05;;;13.00;99.90;;;;;;6228277;28;20049;-76
2023/05/14 05:14:19;;;;;;;10.38;8.63;;;13.00;99.90;;;;;;6226555;28;20050;-77
2023/05/14 05:17:22;;;;;;;11.68;8.30;;;12.90;99.90;;;;;;6226993;28;20372;-77
2023/05/14 05:20:24;;;;;;;10.43;8.57;;;12.90;99.90;;;;;;6223140;28;20046;-78
2023/05/14 05:23:26;;;;;;;13.02;8.50;;;13.00;99.90;;;;;;6219679;28;20497;-79
2023/05/14 05:26:28;;;;;;;11.43;8.43;;;13.00;99.90;;;;;;6228254;28;20123;-78
2023/05/14 05:29:30;;;;;;;11.50;8.25;;;13.10;99.90;;;;;;6228526;28;20057;-79
2023/05/14 05:32:33;;;;;;;12.27;9.85;;;13.10;99.90;;;;;;6227445;28;20073;-79
2023/05/14 05:35:35;;;;;;;12.13;9.30;;;12.90;99.90;;;;;;6227079;28;20555;-78
2023/05/14 05:38:37;;;;;;;12.55;8.88;;;12.90;99.90;;;;;;6224161;28;20046;-80
2023/05/14 05:41:39;;;;;;;10.68;8.52;;;13.00;99.90;;;;;;6223513;28;20407;-77
2023/05/14 05:44:41;;;;;;;12.23;8.35;;;13.00;99.90;;;;;;6227092;28;20048;-77
2023/05/14 05:47:44;;;;;;;12.65;9.10;;;13.00;99.90;;;;;;6227014;28;20053;-77
2023/05/14 05:50:47;;;;;;;10.65;8.30;;;13.10;99.90;;;;;;6221930;28;20038;-77
2023/05/14 05:53:50;;;;;;;11.27;8.05;;;13.10;99.90;;;;;;6217155;28;20052;-77
2023/05/14 05:56:52;;;;;;;11.40;9.18;;;13.10;99.90;;;;;;6222115;28;20047;-76
2023/05/14 05:59:54;;;;;;;12.82;9.30;;;12.90;99.90;;;;;;6228896;28;20513;-77
2023/05/14 06:02:57;;;;;;;14.45;8.75;;;12.70;99.90;;;;;;6229330;28;20060;-77
2023/05/14 06:05:59;;;;;;;10.60;8.25;;;12.90;99.90;;;;;;6230460;28;20038;-77
2023/05/14 06:09:00;;;;;;;10.45;8.52;;;13.00;99.90;;;;;;6229700;28;20156;-77
2023/05/14 06:12:02;;;;;;;10.82;8.13;;;12.90;99.90;;;;;;6225662;28;20057;-76
2023/05/14 06:15:06;;;;;;;10.68;8.50;;;13.00;99.90;;;;;;6225833;28;20041;-78
2023/05/14 06:18:09;;;;;;;12.25;9.30;;;13.10;99.90;;;;;;6226122;28;20492;-78
2023/05/14 06:21:11;;;;;;;11.32;8.48;;;13.20;99.90;;;;;;6225464;28;20060;-78
2023/05/14 06:24:13;;;;;;;11.18;9.10;;;13.20;99.90;;;;;;6226719;28;20354;-76
2023/05/14 06:27:15;;;;;;;14.13;9.65;;;13.10;99.90;;;;;;6226061;28;20050;-76
2023/05/14 06:30:16;;;;;;;11.82;9.55;;;13.10;99.90;;;;;;6225608;28;20038;-77
2023/05/14 06:33:28;;;;;;;12.70;9.65;;;13.20;99.90;;;;;;6224956;28;20061;-78
2023/05/14 06:36:30;;;;;;;12.82;9.57;;;13.20;99.90;;;;;;6225541;28;20414;-79
2023/05/14 06:39:32;;;;;;;12.55;9.50;;;13.10;99.90;;;;;;6226345;28;20041;-79
2023/05/14 06:42:33;;;;;;;12.88;10.00;;;13.20;99.90;;;;;;6226179;28;20042;-79
2023/05/14 06:45:36;;;;;;;12.38;9.55;;;13.10;99.90;;;;;;6223193;28;20056;-76
2023/05/14 06:48:39;;;;;;;12.25;9.05;;;13.20;99.90;;;;;;6224543;28;20129;-76
2023/05/14 06:51:41;;;;;;;11.38;9.10;;;13.30;99.90;;;;;;6225739;28;20046;-78
2023/05/14 06:54:42;;;;;;;13.68;10.77;;;13.30;99.90;;;;;;6225761;28;20380;-79
2023/05/14 06:57:44;;;;;;;14.98;9.82;;;13.30;99.90;;;;;;6226663;28;20046;-78
2023/05/14 07:00:46;;;;;;;13.35;10.07;;;13.20;99.90;;;;;;6225497;28;20061;-78
2023/05/14 07:03:49;;;;;;;14.48;10.75;;;13.10;99.90;;;;;;6225850;28;20042;-79
2023/05/14 07:06:51;;;;;;;13.38;10.18;;;13.20;99.90;;;;;;6213396;28;20410;-79
2023/05/14 07:09:53;;;;;;;14.73;11.95;;;13.40;99.90;;;;;;6225155;28;20065;-79
2023/05/14 07:12:55;;;;;;;16.02;10.65;;;13.20;99.90;;;;;;6226198;28;20053;-76
2023/05/14 07:15:56;;;;;;;14.93;11.10;;;13.30;99.90;;;;;;6206613;28;20046;-77
2023/05/14 07:19:00;;;;;;;15.85;12.20;;;13.30;99.90;;;;;;6220881;28;20509;-78
2023/05/14 07:22:01;;;;;;;15.15;11.68;;;13.10;99.90;;;;;;6224322;28;20073;-79
2023/05/14 07:25:04;;;;;;;14.15;11.15;;;13.30;99.90;;;;;;6224926;28;20491;-78
2023/05/14 07:28:06;;;;;;;13.80;10.75;;;13.40;99.90;;;;;;6213994;28;20049;-76
2023/05/14 07:31:08;;;;;;;16.42;11.80;;;13.50;99.90;;;;;;6219477;28;20475;-76
2023/05/14 07:34:11;;;;;;;14.15;10.52;;;13.60;99.90;;;;;;6224614;28;20810;-75
2023/05/14 07:37:13;;;;;;;14.48;10.90;;;13.80;99.90;;;;;;6236516;28;20046;-77
2023/05/14 07:40:15;;;;;;;17.35;12.27;;;13.90;99.90;;;;;;6244437;28;20056;-76
2023/05/14 07:43:17;;;;;;;14.85;11.43;;;13.60;99.90;;;;;;6243571;28;20050;-79
2023/05/14 07:46:19;;;;;;;13.35;10.70;;;13.80;99.90;;;;;;6242764;28;20056;-77
2023/05/14 07:49:22;;;;;;;14.93;11.50;;;13.90;99.90;;;;;;6240629;28;20050;-80
2023/05/14 07:52:25;;;;;;;15.30;11.52;;;13.80;99.90;;;;;;6225102;28;20046;-78
2023/05/14 07:55:27;;;;;;;14.57;11.10;;;13.70;99.90;;;;;;6236129;28;20384;-78
2023/05/14 07:58:29;;;;;;;15.32;11.68;;;13.90;99.90;;;;;;6225204;28;20054;-79
2023/05/14 08:01:31;;;;;;;15.38;11.13;;;13.90;99.90;;;;;;6224145;28;20080;-78
2023/05/14 08:04:34;;;;;;;15.13;11.85;;;14.10;99.90;;;;;;6223293;28;20598;-76
2023/05/14 08:07:36;;;;;;;;;;;14.20;99.90;;;;;;6210833;28;20391;-74
2023/05/14 08:10:38;;;;;;;15.57;11.57;;;14.40;99.90;;;;;;6220989;28;19922;-74
2023/05/14 08:13:40;;;;;;;16.55;11.57;;;14.50;99.90;;;;;;6221772;28;20181;-74
2023/05/14 08:16:42;;;;;;;14.68;11.02;;;14.70;99.90;;;;;;6210291;28;20057;-75
2023/05/14 08:19:46;;;;;;;26.63;19.40;;;14.70;99.90;;;;;;6222625;28;20052;-74
2023/05/14 08:22:48;;;;;;;19.63;14.70;;;14.80;99.90;;;;;;6208829;28;20043;-74
2023/05/14 08:25:50;;;;;;;15.30;11.27;;;14.80;99.90;;;;;;6204189;28;20050;-74
2023/05/14 08:28:53;;;;;;;18.10;11.75;;;14.70;99.90;;;;;;6207781;28;20061;-75
2023/05/14 08:31:54;;;;;;;17.40;11.33;;;14.80;99.90;;;;;;6213336;28;20407;-78
2023/05/14 08:34:58;;;;;;;13.25;10.68;;;15.00;99.90;;;;;;6222300;28;20311;-74
2023/05/14 08:38:01;;;;;;;16.17;12.77;;;15.10;99.90;;;;;;6228710;28;20484;-74
2023/05/14 08:41:06;;;;;;;15.27;11.20;;;15.00;99.90;;;;;;6231269;28;20046;-75
2023/05/14 08:44:13;;;;;;;14.40;10.60;;;15.00;99.90;;;;;;6229453;28;20414;-77
2023/05/14 08:47:18;;;;;;;13.98;11.25;;;15.00;99.90;;;;;;6224597;28;20056;-75
2023/05/14 08:50:22;;;;;;;14.02;11.15;;;15.20;99.90;;;;;;6223763;28;20061;-75
2023/05/14 08:53:24;;;;;;;13.38;10.65;;;15.30;99.90;;;;;;6222580;28;20407;-78
2023/05/14 08:56:27;;;;;;;15.90;11.60;;;15.40;99.90;;;;;;6224090;28;20473;-78
2023/05/14 08:59:29;;;;;;;16.48;11.05;;;15.60;99.90;;;;;;6228392;28;20196;-77
2023/05/14 09:02:31;;;;;;;14.77;11.90;;;15.60;99.90;;;;;;6228016;28;20069;-78
2023/05/14 09:05:35;;;;;;;15.50;12.02;;;15.60;99.90;;;;;;6212175;28;20051;-78
2023/05/14 09:08:37;;;;;;;15.20;10.98;;;15.60;99.90;;;;;;6215680;28;20046;-79
2023/05/14 09:11:42;;;;;;;15.40;11.32;;;15.70;99.90;;;;;;6226971;28;20065;-78
2023/05/14 09:14:44;;;;;;;14.43;11.25;;;15.70;99.90;;;;;;6227565;28;20053;-79
2023/05/14 09:17:48;;;;;;;16.58;11.40;;;15.90;99.90;;;;;;6228087;28;20042;-80
2023/05/14 09:20:51;;;;;;;16.13;11.95;;;16.00;99.90;;;;;;6227899;28;20056;-79
2023/05/14 09:23:55;;;;;;;15.88;11.50;;;15.70;99.90;;;;;;6226368;28;20070;-78
2023/05/14 09:26:58;;;;;;;15.98;12.52;;;16.00;99.90;;;;;;6228172;28;20055;-79
2023/05/14 09:30:09;;;;;;;16.75;12.40;;;16.10;99.90;;;;;;6222540;28;20046;-79
2023/05/14 09:33:11;;;;;;;15.55;12.43;;;15.90;99.90;;;;;;6228182;28;20144;-79
2023/05/14 09:36:14;;;;;;;16.45;12.80;;;15.70;99.90;;;;;;6225421;28;20069;-78
2023/05/14 09:39:17;;;;;;;14.60;11.82;;;15.60;99.90;;;;;;6225984;28;20069;-77
2023/05/14 09:42:20;;;;;;;14.88;12.02;;;15.90;99.90;;;;;;6228321;28;20077;-78
2023/05/14 09:45:22;;;;;;;15.55;11.52;;;15.40;99.90;;;;;;6229353;28;20041;-77
2023/05/14 09:48:25;;;;;;;13.93;10.50;;;15.90;99.90;;;;;;6219138;28;20042;-79
2023/05/14 09:51:31;;;;;;;15.40;9.97;;;16.30;99.90;;;;;;6217551;28;20045;-78
2023/05/14 09:54:33;;;;;;;13.55;10.88;;;16.30;99.90;;;;;;6225935;28;20046;-79
2023/05/14 09:57:36;;;;;;;12.68;9.38;;;16.30;99.90;;;;;;6225987;28;20407;-72
2023/05/14 10:00:38;;;;;;;12.13;9.82;;;16.00;99.90;;;;;;6225597;28;20049;-79
2023/05/14 10:03:40;;;;;;;13.00;9.90;;;16.40;99.90;;;;;;6224620;28;20407;-75
2023/05/14 10:06:47;;;;;;;12.88;9.93;;;16.40;99.90;;;;;;6205707;28;20500;-76
2023/05/14 10:09:53;;;;;;;13.00;10.75;;;16.60;99.90;;;;;;6206362;28;20046;-77
2023/05/14 10:13:03;;;;;;;12.60;10.00;;;16.20;99.90;;;;;;6221727;28;20053;-78
2023/05/14 10:16:11;;;;;;;13.27;9.38;;;16.60;99.90;;;;;;6203168;28;20051;-79
2023/05/14 10:19:16;;;;;;;11.13;8.85;;;16.90;99.90;;;;;;6201478;28;20053;-78
2023/05/14 10:22:24;;;;;;;13.60;8.40;;;16.90;99.90;;;;;;6223878;28;20050;-78
2023/05/14 10:25:26;;;;;;;12.68;9.13;;;17.10;99.90;;;;;;6221987;28;20037;-79
2023/05/14 10:28:28;;;;;;;11.40;8.23;;;17.30;99.90;;;;;;6224876;28;20053;-78
2023/05/14 10:31:48;;;;;;;11.75;7.45;;;17.20;99.90;;;;;;6222781;28;20050;-73
2023/05/14 10:34:50;;;;;;;9.95;7.10;;;17.30;99.90;;;;;;6206548;28;20506;-77
2023/05/14 10:37:53;;;;;;;12.77;7.55;;;17.30;99.90;;;;;;6202087;28;20042;-80
2023/05/14 10:41:01;;;;;;;11.68;7.70;;;17.30;99.90;;;;;;6213920;28;20050;-79
2023/05/14 10:44:09;;;;;;;10.15;7.93;;;17.30;99.90;;;;;;6224537;28;20057;-79
2023/05/14 10:47:11;;;;;;;10.75;8.40;;;17.10;99.90;;;;;;6214657;28;20042;-78
2023/05/14 10:50:16;;;;;;;13.02;8.45;;;17.30;99.90;;;;;;6221197;28;20058;-77
2023/05/14 10:53:21;;;;;;;11.80;7.63;;;17.00;99.90;;;;;;6224177;28;20056;-80
2023/05/14 10:56:23;;;;;;;10.02;7.30;;;17.10;99.90;;;;;;6221004;28;20123;-78
2023/05/14 10:59:27;;;;;;;10.65;7.57;;;17.10;99.90;;;;;;6221517;28;20050;-80
2023/05/14 11:02:31;;;;;;;9.65;6.85;;;17.00;99.90;;;;;;6222946;28;20064;-76
2023/05/14 11:05:36;;;;;;;8.88;6.70;;;17.10;99.90;;;;;;6224515;28;20046;-76
2023/05/14 11:08:40;;;;;;;10.02;7.90;;;17.20;99.90;;;;;;6224301;28;20128;-79
2023/05/14 11:11:42;;;;;;;9.95;7.32;;;17.20;99.90;;;;;;6223173;28;20619;-77
2023/05/14 11:14:44;;;;;;;9.73;7.45;;;17.20;99.90;;;;;;6224409;28;20499;-77
2023/05/14 11:17:48;;;;;;;12.00;6.68;;;17.00;99.90;;;;;;6219196;28;20116;-77
2023/05/14 11:20:50;;;;;;;10.35;7.03;;;17.00;99.90;;;;;;6223949;28;20132;-77
2023/05/14 11:23:55;;;;;;;9.10;6.60;;;16.90;99.90;;;;;;6222076;28;20038;-77
2023/05/14 11:26:57;;;;;;;8.75;6.20;;;17.00;99.90;;;;;;6217785;28;20042;-75
2023/05/14 11:29:59;;;;;;;8.68;6.70;;;17.20;99.90;;;;;;6223033;28;20069;-76
2023/05/14 11:33:02;;;;;;;11.75;6.50;;;17.10;99.90;;;;;;6207893;28;20054;-75
2023/05/14 11:36:05;;;;;;;9.43;6.63;;;17.10;99.90;;;;;;6217228;28;20050;-75
2023/05/14 11:39:08;;;;;;;7.78;6.15;;;17.20;99.90;;;;;;6218997;28;20046;-75
2023/05/14 11:42:13;;;;;;;9.90;6.25;;;16.80;99.90;;;;;;6222463;28;20050;-75
2023/05/14 11:45:25;;;;;;;9.90;6.15;;;16.80;99.90;;;;;;6220589;28;20181;-76
2023/05/14 11:48:26;;;;;;;8.60;6.05;;;17.30;99.90;;;;;;6208062;28;20053;-78
2023/05/14 11:51:29;;;;;;;8.32;5.80;;;17.30;99.90;;;;;;6221727;28;20403;-77
2023/05/14 11:54:33;;;;;;;9.18;5.95;;;17.50;99.90;;;;;;6223699;28;20049;-76
2023/05/14 11:57:35;;;;;;;8.13;5.60;;;17.60;99.90;;;;;;6223784;28;20050;-77
2023/05/14 12:00:38;;;;;;;9.23;6.05;;;17.80;99.60;;;;;;6227490;28;20042;-78
2023/05/14 12:03:40;;;;;;;8.13;5.40;;;17.90;98.90;;;;;;6225156;28;20050;-79
2023/05/14 12:06:42;;;;;;;8.23;6.20;;;18.10;98.40;;;;;;6223399;28;20042;-78
2023/05/14 12:09:48;;;;;;;7.63;5.50;;;18.00;98.80;;;;;;6219654;28;20057;-79
2023/05/14 12:12:50;;;;;;;7.90;5.53;;;18.10;99.10;;;;;;6220846;28;20053;-77
2023/05/14 12:15:56;;;;;;;7.72;4.93;;;18.40;97.40;;;;;;6198613;28;20050;-78
2023/05/14 12:19:00;;;;;;;6.10;4.45;;;18.10;97.20;;;;;;6221790;28;20503;-79
2023/05/14 12:22:02;;;;;;;7.57;5.00;;;18.10;97.60;;;;;;6214545;28;20412;-76
2023/05/14 12:25:13;;;;;;;6.88;4.40;;;18.00;97.90;;;;;;6198747;28;20083;-74
2023/05/14 12:28:15;;;;;;;6.47;4.40;;;18.00;97.60;;;;;;6221551;28;20046;-76
2023/05/14 12:31:17;;;;;;;6.30;3.72;;;18.10;98.30;;;;;;6204733;28;20054;-76
2023/05/14 12:34:19;;;;;;;5.88;3.70;;;18.10;97.70;;;;;;6204199;28;20162;-77
2023/05/14 12:37:21;;;;;;;5.15;3.67;;;18.30;97.10;;;;;;6225511;28;20088;-76
2023/05/14 12:40:24;;;;;;;5.30;3.33;;;18.20;97.00;;;;;;6227427;28;20046;-75
2023/05/14 12:43:30;;;;;;;4.43;3.13;;;18.10;96.00;;;;;;6225972;28;20061;-75
2023/05/14 12:46:33;;;;;;;6.30;3.40;;;18.20;96.20;;;;;;6223209;28;20045;-77
2023/05/14 12:49:36;;;;;;;4.90;3.20;;;18.20;95.30;;;;;;6214641;28;20488;-76
2023/05/14 12:52:37;;;;;;;4.50;3.05;;;18.10;95.60;;;;;;6221833;28;20049;-77
2023/05/14 12:55:41;;;;;;;6.20;3.20;;;17.90;95.90;;;;;;6204693;28;20054;-79
2023/05/14 12:58:43;;;;;;;5.80;3.17;;;18.00;95.70;;;;;;6227174;28;20049;-77
2023/05/14 13:01:44;;;;;;;4.88;3.30;;;17.90;94.90;;;;;;6220479;28;20069;-77
2023/05/14 13:04:46;;;;;;;4.53;3.00;;;18.10;94.60;;;;;;6212810;28;20045;-77
2023/05/14 13:07:48;;;;;;;6.22;3.35;;;18.20;95.90;;;;;;6226760;28;20491;-77
2023/05/14 13:10:52;;;;;;;5.18;3.30;;;18.00;94.50;;;;;;6226702;28;20046;-74
2023/05/14 13:13:53;;;;;;;5.85;3.65;;;18.10;95.60;;;;;;6224988;28;20042;-75
2023/05/14 13:16:55;;;;;;;5.25;3.15;;;18.20;93.70;;;;;;6221610;28;20046;-79
2023/05/14 13:19:57;;;;;;;4.95;3.58;;;18.30;93.30;;;;;;6226177;28;20058;-77
2023/05/14 13:22:59;;;;;;;5.50;3.50;;;18.20;94.20;;;;;;6218502;28;20077;-79
2023/05/14 13:26:02;;;;;;;4.57;3.33;;;18.60;93.40;;;;;;6220195;28;20088;-75
2023/05/14 13:29:04;;;;;;;5.43;3.25;;;18.80;93.50;;;;;;6202776;28;20111;-79
2023/05/14 13:32:07;;;;;;;4.38;3.28;;;19.10;92.80;;;;;;6215559;28;20057;-76
2023/05/14 13:35:09;;;;;;;4.60;3.00;;;19.10;92.60;;;;;;6208142;28;20046;-77
2023/05/14 13:38:11;;;;;;;4.50;3.20;;;19.00;91.80;;;;;;6225474;28;20045;-77
2023/05/14 13:41:14;;;;;;;5.60;3.60;;;18.90;91.80;;;;;;6228020;28;20049;-77
2023/05/14 13:44:16;;;;;;;4.78;3.00;;;18.90;91.90;;;;;;6227194;28;20064;-78
2023/05/14 13:47:18;;;;;;;4.32;2.90;;;18.90;90.90;;;;;;6226508;28;20065;-79
2023/05/14 13:50:21;;;;;;;5.35;3.40;;;18.90;90.70;;;;;;6209433;28;20051;-78
2023/05/14 13:53:24;;;;;;;5.25;3.22;;;18.80;92.00;;;;;;6201768;28;20400;-79
2023/05/14 13:56:28;;;;;;;5.15;3.13;;;18.80;91.80;;;;;;6199545;28;20050;-78
2023/05/14 13:59:29;;;;;;;5.40;3.53;;;18.70;91.70;;;;;;6199411;28;20050;-76
2023/05/14 14:02:31;;;;;;;4.90;3.25;;;18.80;91.70;;;;;;6199096;28;20062;-78
2023/05/14 14:05:35;;;;;;;4.85;3.30;;;18.80;91.70;;;;;;6199530;28;20046;-77
2023/05/14 14:08:36;;;;;;;4.80;3.03;;;18.80;92.20;;;;;;6199041;28;20460;-78
2023/05/14 14:11:40;;;;;;;4.85;3.30;;;18.80;92.70;;;;;;6201924;28;20049;-76
2023/05/14 14:14:42;;;;;;;5.45;3.20;;;18.90;92.20;;;;;;6202995;28;20417;-75
2023/05/14 14:17:44;;;;;;;5.05;2.83;;;19.20;91.60;;;;;;6203060;28;20057;-78
2023/05/14 14:20:46;;;;;;;4.68;2.97;;;19.40;90.00;;;;;;6203210;28;20050;-80
2023/05/14 14:23:48;;;;;;;4.70;2.38;;;19.30;90.70;;;;;;6201556;28;20498;-78
2023/05/14 14:26:52;;;;;;;4.45;2.78;;;19.30;88.70;;;;;;6200956;28;20415;-78
2023/05/14 14:29:55;;;;;;;5.22;3.05;;;19.10;89.40;;;;;;6201029;28;20046;-78
2023/05/14 14:32:59;;;;;;;4.28;2.72;;;19.00;89.90;;;;;;6216552;28;20049;-71
2023/05/14 14:36:01;;;;;;;5.20;2.72;;;18.80;91.30;;;;;;6217781;28;20053;-72
2023/05/14 14:39:03;;;;;;;5.05;2.72;;;18.80;91.00;;;;;;6200430;28;20157;-72
2023/05/14 14:42:07;;;;;;;4.32;2.67;;;18.70;90.20;;;;;;6200541;28;20060;-72
2023/05/14 14:45:10;;;;;;;5.50;3.05;;;18.70;90.60;;;;;;6223649;28;20136;-70
2023/05/14 14:48:30;;;;;;;4.88;2.83;;;18.70;91.50;;;;;;6224645;28;20053;-70
2023/05/14 14:51:32;;;;;;;4.90;2.90;;;18.60;90.80;;;;;;6202077;28;20181;-71
2023/05/14 14:54:33;;;;;;;5.82;3.10;;;18.50;90.20;;;;;;6200713;28;20050;-71
2023/05/14 14:57:37;;;;;;;5.65;3.13;;;18.60;90.70;;;;;;6200184;28;20054;-71
2023/05/14 15:00:39;;;;;;;4.75;2.83;;;18.60;90.80;;;;;;6200067;28;20042;-71
2023/05/14 15:03:41;;;;;;;4.15;2.80;;;18.70;91.50;;;;;;6222198;28;20487;-71
2023/05/14 15:06:43;;;;;;;5.38;3.05;;;18.70;90.20;;;;;;6224274;28;20053;-70
2023/05/14 15:09:45;;;;;;;6.03;3.00;;;18.70;92.50;;;;;;6222551;28;20046;-71
2023/05/14 15:12:49;;;;;;;5.85;3.05;;;18.70;91.30;;;;;;6208340;28;20054;-70
2023/05/14 15:15:51;;;;;;;;;;;18.60;91.00;;;;;;6209638;28;20046;-70
2023/05/14 15:18:53;;;;;;;3.80;2.70;;;18.70;91.20;;;;;;6207665;28;19921;-72
2023/05/14 15:21:55;;;;;;;4.70;3.10;;;18.80;91.10;;;;;;6220624;28;20046;-71
2023/05/14 15:24:57;;;;;;;5.22;2.80;;;18.70;90.30;;;;;;6215073;28;20045;-71
2023/05/14 15:28:01;;;;;;;5.70;3.20;;;18.60;89.00;;;;;;6212147;28;20483;-70
2023/05/14 15:31:03;;;;;;;5.25;2.90;;;18.60;90.90;;;;;;6207322;28;20403;-74
2023/05/14 15:34:06;;;;;;;4.25;2.72;;;18.70;90.70;;;;;;6210373;28;20061;-76
2023/05/14 15:37:08;;;;;;;5.05;2.78;;;18.70;90.20;;;;;;6209163;28;20392;-73
2023/05/14 15:40:12;;;;;;;4.40;2.80;;;18.60;89.70;;;;;;6220873;28;20056;-75
2023/05/14 15:43:15;;;;;;;;;;;18.70;89.60;;;;;;6222089;28;20061;-74
2023/05/14 15:46:17;;;;;;;3.80;2.67;;;19.00;88.30;;;;;;6208053;28;19929;-75
2023/05/14 15:49:19;;;;;;;5.82;2.92;;;18.90;90.00;;;;;;6217014;28;20107;-75
2023/05/14 15:52:21;;;;;;;4.60;2.83;;;18.70;90.60;;;;;;6218567;28;20060;-76
2023/05/14 15:55:23;;;;;;;7.60;2.90;;;18.50;90.60;;;;;;6218438;28;20144;-76
2023/05/14 15:58:26;;;;;;;8.90;3.00;;;18.50;90.90;;;;;;6219412;28;20411;-76
2023/05/14 16:01:29;;;;;;;4.50;3.15;;;18.60;90.90;;;;;;6216832;28;20059;-75
2023/05/14 16:04:31;;;;;;;5.38;3.08;;;18.40;91.20;;;;;;6205791;28;20139;-74
2023/05/14 16:07:34;;;;;;;4.67;3.07;;;18.30;91.40;;;;;;6223537;28;20060;-75
2023/05/14 16:10:35;;;;;;;4.60;3.22;;;18.10;92.00;;;;;;6225984;28;20057;-78
2023/05/14 16:13:40;;;;;;;5.15;3.00;;;18.00;91.90;;;;;;6225691;28;20054;-76
2023/05/14 16:16:42;;;;;;;5.93;3.30;;;18.10;91.70;;;;;;6222878;28;20089;-75
2023/05/14 16:19:44;;;;;;;4.35;2.97;;;18.00;91.30;;;;;;6222138;28;20057;-79
2023/05/14 16:22:45;;;;;;;5.97;3.38;;;18.00;91.60;;;;;;6225261;28;20050;-78
2023/05/14 16:25:47;;;;;;;5.03;3.40;;;18.00;91.90;;;;;;6233943;28;20053;-75
2023/05/14 16:28:51;;;;;;;5.57;3.40;;;17.70;91.90;;;;;;6216120;28;20042;-75
2023/05/14 16:31:52;;;;;;;5.65;3.15;;;17.80;92.50;;;;;;6229833;28;20053;-75
2023/05/14 16:34:55;;;;;;;4.88;3.45;;;17.80;92.10;;;;;;6234027;28;20084;-76
2023/05/14 16:37:57;;;;;;;4.50;3.28;;;17.70;92.70;;;;;;6233668;28;20403;-74
2023/05/14 16:40:58;;;;;;;5.25;3.20;;;17.80;92.60;;;;;;6225568;28;20053;-75
2023/05/14 16:44:02;;;;;;;4.53;3.20;;;17.80;92.60;;;;;;6227247;28;20484;-74
2023/05/14 16:47:05;;;;;;;6.15;3.33;;;17.70;92.70;;;;;;6221364;28;20050;-76
2023/05/14 16:50:08;;;;;;;6.67;3.37;;;17.50;93.00;;;;;;6213766;28;20117;-76
2023/05/14 16:53:09;;;;;;;5.10;3.25;;;17.50;93.40;;;;;;6203995;28;20057;-77
2023/05/14 16:56:12;;;;;;;6.75;3.50;;;17.50;93.00;;;;;;6213168;28;20196;-78
2023/05/14 16:59:15;;;;;;;5.75;3.30;;;17.40;93.50;;;;;;6219905;28;20069;-75
2023/05/14 17:02:17;;;;;;;5.15;3.45;;;17.60;93.10;;;;;;6224553;28;20054;-78
2023/05/14 17:05:19;;;;;;;5.93;3.88;;;17.60;93.00;;;;;;6227123;28;20069;-75
2023/05/14 17:08:21;;;;;;;5.15;3.63;;;17.60;93.00;;;;;;6227577;28;20046;-75
2023/05/14 17:11:23;;;;;;;6.45;3.40;;;17.60;92.40;;;;;;6219905;28;20506;-75
2023/05/14 17:14:26;;;;;;;5.68;3.15;;;17.80;93.00;;;;;;6209730;28;20049;-74
2023/05/14 17:17:28;;;;;;;4.75;3.50;;;17.90;92.60;;;;;;6215884;28;20038;-76
2023/05/14 17:20:30;;;;;;;5.07;3.42;;;18.00;92.10;;;;;;6224443;28;20045;-74
2023/05/14 17:23:32;;;;;;;6.57;3.42;;;18.10;92.20;;;;;;6224854;28;20053;-74
2023/05/14 17:26:34;;;;;;;5.28;3.30;;;18.20;92.30;;;;;;6225308;28;20057;-75
2023/05/14 17:29:37;;;;;;;7.13;3.60;;;18.30;92.50;;;;;;6223580;28;20049;-75
2023/05/14 17:32:39;;;;;;;5.10;3.40;;;18.40;92.30;;;;;;6207181;28;20050;-76
2023/05/14 17:35:42;;;;;;;6.10;3.40;;;18.30;91.70;;;;;;6200296;28;20046;-72
2023/05/14 17:38:44;;;;;;;;;;;18.40;91.90;;;;;;6211450;28;20407;-76
2023/05/14 17:41:48;;;;;;;5.85;3.53;;;18.10;91.20;;;;;;6225437;28;19933;-76
2023/05/14 17:44:53;;;;;;;5.03;3.50;;;17.90;91.90;;;;;;6218892;28;20046;-75
2023/05/14 17:47:54;;;;;;;5.35;3.28;;;17.90;91.70;;;;;;6202824;28;20053;-76
2023/05/14 17:50:56;;;;;;;5.68;3.97;;;18.10;92.20;;;;;;6222192;28;20058;-74
2023/05/14 17:53:58;;;;;;;4.95;2.80;;;18.30;91.50;;;;;;6208506;28;20061;-76
2023/05/14 17:57:00;;;;;;;4.07;2.70;;;18.10;90.50;;;;;;6211022;28;20054;-76
2023/05/14 18:00:04;;;;;;;5.05;3.20;;;18.30;90.30;;;;;;6222824;28;20129;-74
2023/05/14 18:03:07;;;;;;;5.13;2.80;;;18.40;89.10;;;;;;6200979;28;20061;-77
2023/05/14 18:06:10;;;;;;;3.95;2.63;;;18.30;89.40;;;;;;6199962;28;20092;-73
2023/05/14 18:09:12;;;;;;;6.45;2.95;;;18.10;90.00;;;;;;6199656;28;20054;-74
2023/05/14 18:12:14;;;;;;;5.43;3.03;;;18.20;91.50;;;;;;6217914;28;20483;-74
2023/05/14 18:15:18;;;;;;;4.70;2.67;;;18.30;90.80;;;;;;6222717;28;20050;-74
2023/05/14 18:18:22;;;;;;;6.43;2.85;;;18.30;90.50;;;;;;6214180;28;20057;-73
2023/05/14 18:21:24;;;;;;;5.22;2.75;;;18.30;90.70;;;;;;6222320;28;20073;-73
2023/05/14 18:24:26;;;;;;;4.90;2.90;;;18.20;91.40;;;;;;6221703;28;20073;-73
2023/05/14 18:27:29;;;;;;;6.78;3.30;;;18.00;93.40;;;;;;6221428;28;20509;-73
2023/05/14 18:30:32;;;;;;;6.60;3.47;;;17.90;93.40;;;;;;6214026;28;20038;-76
2023/05/14 18:33:34;;;;;;;;;;;17.80;94.50;;;;;;6219812;28;20305;-76
2023/05/14 18:36:36;;;;;;;4.97;3.17;;;17.70;95.40;;;;;;6218457;28;19932;-74
2023/05/14 18:39:38;;;;;;;5.95;3.22;;;17.60;95.00;;;;;;6219183;28;20332;-75
2023/05/14 18:42:41;;;;;;;8.02;4.72;;;17.50;95.60;;;;;;6218975;28;20053;-74
2023/05/14 18:45:45;;;;;;;10.07;3.73;;;17.40;95.70;;;;;;6219927;28;20054;-77
2023/05/14 18:48:46;;;;;;;7.65;4.30;;;17.30;95.30;;;;;;6220783;28;20799;-75
2023/05/14 18:51:49;;;;;;;8.25;5.15;;;17.10;96.30;;;;;;6220761;28;20054;-77
2023/05/14 18:54:51;;;;;;;10.88;5.88;;;17.10;97.30;;;;;;6220054;28;20053;-75
2023/05/14 18:57:53;;;;;;;8.77;5.63;;;17.00;97.90;;;;;;6218750;28;20053;-74
2023/05/14 19:00:57;;;;;;;9.57;6.00;;;16.90;98.40;;;;;;6223904;28;20069;-74
2023/05/14 19:03:59;;;;;;;8.70;5.10;;;16.80;99.10;;;;;;6205960;28;20067;-77
2023/05/14 19:07:00;;;;;;;9.10;5.38;;;16.80;99.40;;;;;;6219612;28;20049;-77
2023/05/14 19:10:03;;;;;;;8.55;5.63;;;16.70;99.80;;;;;;6218919;28;20045;-75
2023/05/14 19:13:05;;;;;;;8.68;5.97;;;16.60;99.90;;;;;;6219393;28;20050;-76
2023/05/14 19:16:09;;;;;;;9.45;6.10;;;16.50;99.90;;;;;;6218992;28;20057;-74
2023/05/14 19:19:12;;;;;;;8.45;5.72;;;16.40;99.90;;;;;;6219069;28;20061;-74
2023/05/14 19:22:14;;;;;;;8.02;6.05;;;16.40;99.90;;;;;;6218741;28;20046;-75
2023/05/14 19:25:16;;;;;;;7.32;5.32;;;16.30;99.90;;;;;;6219059;28;20054;-74
2023/05/14 19:28:18;;;;;;;8.02;5.65;;;16.20;99.90;;;;;;6218608;28;20046;-74
2023/05/14 19:31:21;;;;;;;8.05;5.90;;;16.20;99.90;;;;;;6218375;28;20042;-76
2023/05/14 19:34:23;;;;;;;8.65;5.78;;;16.10;99.90;;;;;;6216744;28;20064;-76
2023/05/14 19:37:25;;;;;;;8.30;5.45;;;16.00;99.90;;;;;;6217907;28;20057;-75
2023/05/14 19:40:27;;;;;;;7.72;5.30;;;15.90;99.90;;;;;;6217865;28;20089;-76
2023/05/14 19:43:29;;;;;;;7.95;5.25;;;15.90;99.90;;;;;;6217856;28;20061;-75
2023/05/14 19:46:32;;;;;;;7.38;5.32;;;15.80;99.90;;;;;;6217467;28;20049;-76
2023/05/14 19:49:34;;;;;;;7.35;5.30;;;15.70;99.90;;;;;;6217697;28;20061;-76
2023/05/14 19:52:36;;;;;;;6.03;4.78;;;15.70;99.90;;;;;;6217272;28;20415;-74
2023/05/14 19:55:38;;;;;;;7.80;5.43;;;15.60;99.90;;;;;;6217426;28;20056;-76
2023/05/14 19:58:40;;;;;;;8.05;4.97;;;15.50;99.90;;;;;;6217762;28;20059;-75
2023/05/14 20:01:44;;;;;;;7.57;5.22;;;15.50;99.90;;;;;;6211044;28;20065;-74
2023/05/14 20:04:46;;;;;;;7.68;5.07;;;15.50;99.90;;;;;;6218131;28;20058;-74
2023/05/14 20:07:48;;;;;;;7.93;5.18;;;15.40;99.90;;;;;;6218233;28;20045;-74
2023/05/14 20:10:51;;;;;;;6.53;4.90;;;15.40;99.90;;;;;;6213256;28;20052;-75
2023/05/14 20:13:52;;;;;;;7.88;5.45;;;15.40;99.90;;;;;;6209634;28;20046;-77
2023/05/14 20:16:56;;;;;;;7.72;5.38;;;15.20;99.90;;;;;;6220498;28;20050;-76
2023/05/14 20:19:58;;;;;;;8.95;5.50;;;15.30;99.90;;;;;;6220476;28;20062;-76
2023/05/14 20:23:00;;;;;;;7.35;5.25;;;15.20;99.90;;;;;;6219706;28;20050;-76
2023/05/14 20:26:02;;;;;;;10.05;6.00;;;15.20;99.90;;;;;;6220580;28;20050;-76
2023/05/14 20:29:04;;;;;;;8.20;5.90;;;15.20;99.90;;;;;;6200017;28;20504;-76
2023/05/14 20:32:08;;;;;;;8.43;5.78;;;15.10;99.90;;;;;;6210547;28;20054;-75
2023/05/14 20:35:10;;;;;;;7.63;6.00;;;15.10;99.90;;;;;;6216058;28;20089;-76
2023/05/14 20:38:12;;;;;;;8.18;5.55;;;15.00;99.90;;;;;;6211034;28;20049;-75
2023/05/14 20:41:14;;;;;;;9.07;5.47;;;15.00;99.90;;;;;;6220372;28;20053;-76
2023/05/14 20:44:16;;;;;;;7.53;5.25;;;14.90;99.90;;;;;;6208944;28;20050;-73
2023/05/14 20:47:23;;;;;;;7.75;5.50;;;14.90;99.90;;;;;;6219812;28;20495;-76